Disclaimer

Please do not use the information listed here in-flight or in-navigation, as they are not provided to us by the airports but are provided by volunteers, so they might be outdated.

Search


Regions


Airport information page

Radio informations:
COBIJA TWR - 118.3 MHz
COBIJA RDO - 6622 MHz

Airport informations:
Latitude: 11° 02' 25.57" S
Longitude: 068° 46' 58.70" W
Elevation: 892 feet - 272 meters
Operating hours: From sunrise to sunset (SR-SS)
Operating agency: Civil government, landing fees and diplomatic clearance may be required
Timezone: UTC-4
Fuel: N/A

Runway information:
02/20 - 6562 x 98 feet< - >2000 x 30 meters

Recent METARs:
SLCO 122000Z 26006KT 9999 FEW017 FEW025CB BKN080 OVC200 29/26 Q1005
SLCO 122100Z 30004KT 9999 FEW023 FEW025CB BKN080 OVC200 28/25 Q1005
SLCO 122100Z 30004KT 9999 FEW023 FEW025CB BKN080 OVC200 28/25 Q1005

Airport on the map: